sensor_id;sensor_type;location;lat;lon;timestamp;P1;durP1;ratioP1;P2;durP2;ratioP2
16504;SDS011;8365;51.030;4.696;2024-01-07T00:02:27;15.53;;;13.03;;
16504;SDS011;8365;51.030;4.696;2024-01-07T00:04:58;14.43;;;12.90;;
16504;SDS011;8365;51.030;4.696;2024-01-07T00:07:29;14.20;;;12.23;;
16504;SDS011;8365;51.030;4.696;2024-01-07T00:09:59;14.87;;;12.90;;
16504;SDS011;8365;51.030;4.696;2024-01-07T00:12:30;15.60;;;12.53;;
16504;SDS011;8365;51.030;4.696;2024-01-07T00:15:01;16.07;;;13.23;;
16504;SDS011;8365;51.030;4.696;2024-01-07T00:17:32;15.33;;;13.07;;
16504;SDS011;8365;51.030;4.696;2024-01-07T00:20:02;15.33;;;11.83;;
16504;SDS011;8365;51.030;4.696;2024-01-07T00:22:35;13.47;;;11.33;;
16504;SDS011;8365;51.030;4.696;2024-01-07T00:25:05;15.60;;;12.67;;
16504;SDS011;8365;51.030;4.696;2024-01-07T00:27:38;13.40;;;11.93;;
16504;SDS011;8365;51.030;4.696;2024-01-07T00:30:09;15.67;;;12.43;;
16504;SDS011;8365;51.030;4.696;2024-01-07T00:32:40;15.73;;;12.77;;
16504;SDS011;8365;51.030;4.696;2024-01-07T00:35:10;14.43;;;12.20;;
16504;SDS011;8365;51.030;4.696;2024-01-07T00:37:41;16.70;;;13.30;;
16504;SDS011;8365;51.030;4.696;2024-01-07T00:40:11;15.70;;;13.00;;
16504;SDS011;8365;51.030;4.696;2024-01-07T00:42:42;14.10;;;12.17;;
16504;SDS011;8365;51.030;4.696;2024-01-07T00:45:12;14.60;;;12.10;;
16504;SDS011;8365;51.030;4.696;2024-01-07T00:47:43;15.80;;;13.07;;
16504;SDS011;8365;51.030;4.696;2024-01-07T00:50:13;14.57;;;12.53;;
16504;SDS011;8365;51.030;4.696;2024-01-07T00:52:44;17.30;;;14.60;;
16504;SDS011;8365;51.030;4.696;2024-01-07T00:55:16;17.93;;;16.00;;
16504;SDS011;8365;51.030;4.696;2024-01-07T00:57:46;16.57;;;13.60;;
16504;SDS011;8365;51.030;4.696;2024-01-07T01:00:17;15.60;;;12.17;;
16504;SDS011;8365;51.030;4.696;2024-01-07T01:02:49;13.53;;;12.03;;
16504;SDS011;8365;51.030;4.696;2024-01-07T01:05:22;16.30;;;13.30;;
16504;SDS011;8365;51.030;4.696;2024-01-07T01:07:52;15.70;;;12.70;;
16504;SDS011;8365;51.030;4.696;2024-01-07T01:10:23;18.33;;;14.53;;
16504;SDS011;8365;51.030;4.696;2024-01-07T01:12:53;15.53;;;13.13;;
16504;SDS011;8365;51.030;4.696;2024-01-07T01:15:24;18.57;;;12.27;;
16504;SDS011;8365;51.030;4.696;2024-01-07T01:17:54;16.17;;;13.10;;
16504;SDS011;8365;51.030;4.696;2024-01-07T01:20:25;15.60;;;13.07;;
16504;SDS011;8365;51.030;4.696;2024-01-07T01:22:55;16.50;;;14.57;;
16504;SDS011;8365;51.030;4.696;2024-01-07T01:25:26;16.33;;;14.20;;
16504;SDS011;8365;51.030;4.696;2024-01-07T01:27:57;15.80;;;12.47;;
16504;SDS011;8365;51.030;4.696;2024-01-07T01:30:29;13.53;;;11.77;;
16504;SDS011;8365;51.030;4.696;2024-01-07T01:33:01;17.03;;;12.77;;
16504;SDS011;8365;51.030;4.696;2024-01-07T01:35:32;16.30;;;13.17;;
16504;SDS011;8365;51.030;4.696;2024-01-07T01:38:02;17.03;;;13.47;;
16504;SDS011;8365;51.030;4.696;2024-01-07T01:40:33;16.07;;;14.37;;
16504;SDS011;8365;51.030;4.696;2024-01-07T01:43:06;17.30;;;13.50;;
16504;SDS011;8365;51.030;4.696;2024-01-07T01:45:36;16.90;;;13.70;;
16504;SDS011;8365;51.030;4.696;2024-01-07T01:48:07;16.27;;;13.53;;
16504;SDS011;8365;51.030;4.696;2024-01-07T01:50:38;17.80;;;14.67;;
16504;SDS011;8365;51.030;4.696;2024-01-07T01:53:09;20.27;;;15.63;;
16504;SDS011;8365;51.030;4.696;2024-01-07T01:55:39;20.90;;;16.40;;
16504;SDS011;8365;51.030;4.696;2024-01-07T01:58:11;22.97;;;17.43;;
16504;SDS011;8365;51.030;4.696;2024-01-07T02:00:43;23.80;;;18.63;;
16504;SDS011;8365;51.030;4.696;2024-01-07T02:03:14;23.67;;;17.53;;
16504;SDS011;8365;51.030;4.696;2024-01-07T02:05:45;21.73;;;18.03;;
16504;SDS011;8365;51.030;4.696;2024-01-07T02:08:15;24.77;;;19.33;;
16504;SDS011;8365;51.030;4.696;2024-01-07T02:10:47;24.50;;;18.57;;
16504;SDS011;8365;51.030;4.696;2024-01-07T02:13:22;25.13;;;18.77;;
16504;SDS011;8365;51.030;4.696;2024-01-07T02:15:52;24.40;;;19.23;;
16504;SDS011;8365;51.030;4.696;2024-01-07T02:18:23;25.60;;;20.13;;
16504;SDS011;8365;51.030;4.696;2024-01-07T02:20:53;24.43;;;19.43;;
16504;SDS011;8365;51.030;4.696;2024-01-07T02:23:24;26.80;;;19.60;;
16504;SDS011;8365;51.030;4.696;2024-01-07T02:25:54;26.97;;;20.40;;
16504;SDS011;8365;51.030;4.696;2024-01-07T02:28:27;27.57;;;21.77;;
16504;SDS011;8365;51.030;4.696;2024-01-07T02:30:58;27.33;;;21.13;;
16504;SDS011;8365;51.030;4.696;2024-01-07T02:33:28;28.27;;;21.00;;
16504;SDS011;8365;51.030;4.696;2024-01-07T02:36:00;28.73;;;21.70;;
16504;SDS011;8365;51.030;4.696;2024-01-07T02:38:31;27.27;;;21.43;;
16504;SDS011;8365;51.030;4.696;2024-01-07T02:41:02;25.63;;;19.40;;
16504;SDS011;8365;51.030;4.696;2024-01-07T02:43:32;28.07;;;18.93;;
16504;SDS011;8365;51.030;4.696;2024-01-07T02:46:03;30.13;;;23.40;;
16504;SDS011;8365;51.030;4.696;2024-01-07T02:48:33;28.03;;;19.10;;
16504;SDS011;8365;51.030;4.696;2024-01-07T02:51:04;26.40;;;18.63;;
16504;SDS011;8365;51.030;4.696;2024-01-07T02:53:35;31.77;;;20.13;;
16504;SDS011;8365;51.030;4.696;2024-01-07T02:56:05;25.90;;;18.87;;
16504;SDS011;8365;51.030;4.696;2024-01-07T02:58:39;26.73;;;20.23;;
16504;SDS011;8365;51.030;4.696;2024-01-07T03:01:10;27.50;;;18.70;;
16504;SDS011;8365;51.030;4.696;2024-01-07T03:03:40;26.20;;;19.27;;
16504;SDS011;8365;51.030;4.696;2024-01-07T03:06:11;28.27;;;19.43;;
16504;SDS011;8365;51.030;4.696;2024-01-07T03:08:42;27.07;;;19.83;;
16504;SDS011;8365;51.030;4.696;2024-01-07T03:11:13;28.43;;;18.97;;
16504;SDS011;8365;51.030;4.696;2024-01-07T03:13:43;27.57;;;20.43;;
16504;SDS011;8365;51.030;4.696;2024-01-07T03:16:23;27.63;;;19.47;;
16504;SDS011;8365;51.030;4.696;2024-01-07T03:18:55;30.10;;;23.60;;
16504;SDS011;8365;51.030;4.696;2024-01-07T03:21:25;26.20;;;19.60;;
16504;SDS011;8365;51.030;4.696;2024-01-07T03:23:56;26.60;;;20.03;;
16504;SDS011;8365;51.030;4.696;2024-01-07T03:26:28;27.50;;;20.00;;
16504;SDS011;8365;51.030;4.696;2024-01-07T03:29:00;27.90;;;19.50;;
16504;SDS011;8365;51.030;4.696;2024-01-07T03:31:33;26.73;;;20.00;;
16504;SDS011;8365;51.030;4.696;2024-01-07T03:34:03;27.37;;;18.67;;
16504;SDS011;8365;51.030;4.696;2024-01-07T03:36:34;28.80;;;20.90;;
16504;SDS011;8365;51.030;4.696;2024-01-07T03:39:04;29.33;;;19.53;;
16504;SDS011;8365;51.030;4.696;2024-01-07T03:41:35;28.80;;;21.80;;
16504;SDS011;8365;51.030;4.696;2024-01-07T03:44:07;30.17;;;21.10;;
16504;SDS011;8365;51.030;4.696;2024-01-07T03:46:38;31.10;;;21.80;;
16504;SDS011;8365;51.030;4.696;2024-01-07T03:49:08;27.73;;;20.37;;
16504;SDS011;8365;51.030;4.696;2024-01-07T03:51:39;27.67;;;20.73;;
16504;SDS011;8365;51.030;4.696;2024-01-07T03:54:09;29.37;;;21.00;;
16504;SDS011;8365;51.030;4.696;2024-01-07T03:56:40;28.73;;;20.93;;
16504;SDS011;8365;51.030;4.696;2024-01-07T03:59:10;27.27;;;18.93;;
16504;SDS011;8365;51.030;4.696;2024-01-07T04:01:41;28.30;;;19.90;;
16504;SDS011;8365;51.030;4.696;2024-01-07T04:04:11;30.57;;;20.20;;
16504;SDS011;8365;51.030;4.696;2024-01-07T04:06:43;27.17;;;20.80;;
16504;SDS011;8365;51.030;4.696;2024-01-07T04:09:14;27.47;;;20.00;;
16504;SDS011;8365;51.030;4.696;2024-01-07T04:11:44;26.87;;;19.57;;
16504;SDS011;8365;51.030;4.696;2024-01-07T04:14:15;27.60;;;20.03;;
16504;SDS011;8365;51.030;4.696;2024-01-07T04:16:49;34.23;;;22.83;;
16504;SDS011;8365;51.030;4.696;2024-01-07T04:19:21;30.00;;;20.83;;
16504;SDS011;8365;51.030;4.696;2024-01-07T04:21:52;27.53;;;21.23;;
16504;SDS011;8365;51.030;4.696;2024-01-07T04:24:22;28.90;;;20.70;;
16504;SDS011;8365;51.030;4.696;2024-01-07T04:26:53;29.20;;;20.97;;
16504;SDS011;8365;51.030;4.696;2024-01-07T04:29:23;28.07;;;21.33;;
16504;SDS011;8365;51.030;4.696;2024-01-07T04:31:54;30.03;;;21.80;;
16504;SDS011;8365;51.030;4.696;2024-01-07T04:34:24;29.80;;;21.33;;
16504;SDS011;8365;51.030;4.696;2024-01-07T04:36:55;28.80;;;20.37;;
16504;SDS011;8365;51.030;4.696;2024-01-07T04:39:26;33.97;;;22.70;;
16504;SDS011;8365;51.030;4.696;2024-01-07T04:41:56;31.17;;;22.03;;
16504;SDS011;8365;51.030;4.696;2024-01-07T04:44:26;31.80;;;21.60;;
16504;SDS011;8365;51.030;4.696;2024-01-07T04:46:57;37.70;;;28.03;;
16504;SDS011;8365;51.030;4.696;2024-01-07T04:49:27;30.97;;;21.93;;
16504;SDS011;8365;51.030;4.696;2024-01-07T04:51:58;34.37;;;23.63;;
16504;SDS011;8365;51.030;4.696;2024-01-07T04:54:30;33.13;;;23.30;;
16504;SDS011;8365;51.030;4.696;2024-01-07T04:57:03;31.03;;;22.40;;
16504;SDS011;8365;51.030;4.696;2024-01-07T04:59:34;28.23;;;21.43;;
16504;SDS011;8365;51.030;4.696;2024-01-07T05:02:05;30.80;;;21.87;;
16504;SDS011;8365;51.030;4.696;2024-01-07T05:04:35;31.90;;;22.37;;
16504;SDS011;8365;51.030;4.696;2024-01-07T05:07:06;31.37;;;22.80;;
16504;SDS011;8365;51.030;4.696;2024-01-07T05:09:36;35.57;;;22.27;;
16504;SDS011;8365;51.030;4.696;2024-01-07T05:12:07;33.97;;;24.47;;
16504;SDS011;8365;51.030;4.696;2024-01-07T05:14:37;33.80;;;23.57;;
16504;SDS011;8365;51.030;4.696;2024-01-07T05:17:08;29.37;;;21.97;;
16504;SDS011;8365;51.030;4.696;2024-01-07T05:19:42;35.13;;;24.80;;
16504;SDS011;8365;51.030;4.696;2024-01-07T05:22:13;35.50;;;24.27;;
16504;SDS011;8365;51.030;4.696;2024-01-07T05:24:43;32.07;;;22.37;;
16504;SDS011;8365;51.030;4.696;2024-01-07T05:27:16;35.27;;;23.77;;
16504;SDS011;8365;51.030;4.696;2024-01-07T05:29:46;34.90;;;24.00;;
16504;SDS011;8365;51.030;4.696;2024-01-07T05:32:19;36.00;;;23.00;;
16504;SDS011;8365;51.030;4.696;2024-01-07T05:34:50;28.37;;;20.13;;
16504;SDS011;8365;51.030;4.696;2024-01-07T05:37:20;30.70;;;21.37;;
16504;SDS011;8365;51.030;4.696;2024-01-07T05:39:51;32.90;;;21.00;;
16504;SDS011;8365;51.030;4.696;2024-01-07T05:42:23;34.00;;;23.77;;
16504;SDS011;8365;51.030;4.696;2024-01-07T05:44:54;32.00;;;22.60;;
16504;SDS011;8365;51.030;4.696;2024-01-07T05:47:24;31.20;;;21.63;;
16504;SDS011;8365;51.030;4.696;2024-01-07T05:49:54;34.57;;;23.33;;
16504;SDS011;8365;51.030;4.696;2024-01-07T05:52:25;31.77;;;20.77;;
16504;SDS011;8365;51.030;4.696;2024-01-07T05:54:56;37.40;;;22.60;;
16504;SDS011;8365;51.030;4.696;2024-01-07T05:57:27;33.77;;;21.77;;
16504;SDS011;8365;51.030;4.696;2024-01-07T05:59:58;34.90;;;21.87;;
16504;SDS011;8365;51.030;4.696;2024-01-07T06:02:28;35.20;;;21.90;;
16504;SDS011;8365;51.030;4.696;2024-01-07T06:04:59;37.47;;;22.40;;
16504;SDS011;8365;51.030;4.696;2024-01-07T06:07:29;35.37;;;21.80;;
16504;SDS011;8365;51.030;4.696;2024-01-07T06:10:00;42.07;;;23.20;;
16504;SDS011;8365;51.030;4.696;2024-01-07T06:12:30;38.90;;;24.53;;
16504;SDS011;8365;51.030;4.696;2024-01-07T06:15:03;41.37;;;25.00;;
16504;SDS011;8365;51.030;4.696;2024-01-07T06:17:35;39.03;;;24.23;;
16504;SDS011;8365;51.030;4.696;2024-01-07T06:20:06;43.07;;;25.57;;
16504;SDS011;8365;51.030;4.696;2024-01-07T06:22:38;40.60;;;24.63;;
16504;SDS011;8365;51.030;4.696;2024-01-07T06:25:08;42.43;;;26.27;;
16504;SDS011;8365;51.030;4.696;2024-01-07T06:27:39;41.37;;;25.70;;
16504;SDS011;8365;51.030;4.696;2024-01-07T06:30:09;46.40;;;27.10;;
16504;SDS011;8365;51.030;4.696;2024-01-07T06:32:40;44.00;;;28.33;;
16504;SDS011;8365;51.030;4.696;2024-01-07T06:35:11;43.37;;;26.30;;
16504;SDS011;8365;51.030;4.696;2024-01-07T06:37:41;42.27;;;25.63;;
16504;SDS011;8365;51.030;4.696;2024-01-07T06:40:12;41.60;;;25.40;;
16504;SDS011;8365;51.030;4.696;2024-01-07T06:42:45;43.70;;;26.87;;
16504;SDS011;8365;51.030;4.696;2024-01-07T06:45:16;39.87;;;24.93;;
16504;SDS011;8365;51.030;4.696;2024-01-07T06:47:47;39.87;;;25.13;;
16504;SDS011;8365;51.030;4.696;2024-01-07T06:50:17;40.87;;;26.17;;
16504;SDS011;8365;51.030;4.696;2024-01-07T06:52:49;40.70;;;26.57;;
16504;SDS011;8365;51.030;4.696;2024-01-07T06:55:20;40.77;;;25.23;;
16504;SDS011;8365;51.030;4.696;2024-01-07T06:57:51;38.57;;;25.30;;
16504;SDS011;8365;51.030;4.696;2024-01-07T07:00:22;43.50;;;27.27;;
16504;SDS011;8365;51.030;4.696;2024-01-07T07:02:53;47.30;;;29.33;;
16504;SDS011;8365;51.030;4.696;2024-01-07T07:05:23;60.47;;;35.30;;
16504;SDS011;8365;51.030;4.696;2024-01-07T07:07:54;67.80;;;40.43;;
16504;SDS011;8365;51.030;4.696;2024-01-07T07:10:24;111.17;;;63.47;;
16504;SDS011;8365;51.030;4.696;2024-01-07T07:12:55;91.30;;;54.67;;
16504;SDS011;8365;51.030;4.696;2024-01-07T07:15:25;85.83;;;48.90;;
16504;SDS011;8365;51.030;4.696;2024-01-07T07:17:57;78.27;;;47.60;;
16504;SDS011;8365;51.030;4.696;2024-01-07T07:20:28;79.77;;;48.73;;
16504;SDS011;8365;51.030;4.696;2024-01-07T07:22:58;77.00;;;46.50;;
16504;SDS011;8365;51.030;4.696;2024-01-07T07:25:29;80.10;;;45.77;;
16504;SDS011;8365;51.030;4.696;2024-01-07T07:27:59;79.27;;;47.00;;
16504;SDS011;8365;51.030;4.696;2024-01-07T07:30:30;79.10;;;46.80;;
16504;SDS011;8365;51.030;4.696;2024-01-07T07:33:02;67.60;;;42.40;;
16504;SDS011;8365;51.030;4.696;2024-01-07T07:35:33;72.97;;;42.57;;
16504;SDS011;8365;51.030;4.696;2024-01-07T07:38:03;64.53;;;41.07;;
16504;SDS011;8365;51.030;4.696;2024-01-07T07:40:35;61.13;;;37.50;;
16504;SDS011;8365;51.030;4.696;2024-01-07T07:43:05;54.60;;;35.97;;
16504;SDS011;8365;51.030;4.696;2024-01-07T07:45:36;43.93;;;28.83;;
16504;SDS011;8365;51.030;4.696;2024-01-07T07:48:07;40.60;;;26.07;;
16504;SDS011;8365;51.030;4.696;2024-01-07T07:50:37;38.30;;;24.97;;
16504;SDS011;8365;51.030;4.696;2024-01-07T07:53:08;33.83;;;23.37;;
16504;SDS011;8365;51.030;4.696;2024-01-07T07:55:38;33.83;;;21.50;;
16504;SDS011;8365;51.030;4.696;2024-01-07T07:58:09;30.60;;;20.73;;
16504;SDS011;8365;51.030;4.696;2024-01-07T08:00:39;29.87;;;20.40;;
16504;SDS011;8365;51.030;4.696;2024-01-07T08:03:10;32.43;;;21.70;;
16504;SDS011;8365;51.030;4.696;2024-01-07T08:05:40;32.50;;;21.37;;
16504;SDS011;8365;51.030;4.696;2024-01-07T08:08:11;30.97;;;20.33;;
16504;SDS011;8365;51.030;4.696;2024-01-07T08:10:42;30.77;;;20.23;;
16504;SDS011;8365;51.030;4.696;2024-01-07T08:13:15;28.97;;;19.87;;
16504;SDS011;8365;51.030;4.696;2024-01-07T08:15:46;25.57;;;18.87;;
16504;SDS011;8365;51.030;4.696;2024-01-07T08:18:17;29.47;;;21.33;;
16504;SDS011;8365;51.030;4.696;2024-01-07T08:20:48;26.43;;;18.83;;
16504;SDS011;8365;51.030;4.696;2024-01-07T08:23:18;24.67;;;18.40;;
16504;SDS011;8365;51.030;4.696;2024-01-07T08:25:49;30.47;;;20.73;;
16504;SDS011;8365;51.030;4.696;2024-01-07T08:28:21;31.37;;;23.17;;
16504;SDS011;8365;51.030;4.696;2024-01-07T08:30:51;35.57;;;25.70;;
16504;SDS011;8365;51.030;4.696;2024-01-07T08:33:23;36.27;;;25.63;;
16504;SDS011;8365;51.030;4.696;2024-01-07T08:35:56;38.67;;;27.27;;
16504;SDS011;8365;51.030;4.696;2024-01-07T08:38:26;31.00;;;23.00;;
16504;SDS011;8365;51.030;4.696;2024-01-07T08:40:57;29.30;;;20.23;;
16504;SDS011;8365;51.030;4.696;2024-01-07T08:43:27;29.40;;;21.43;;
16504;SDS011;8365;51.030;4.696;2024-01-07T08:45:58;28.40;;;20.63;;
16504;SDS011;8365;51.030;4.696;2024-01-07T08:48:28;24.20;;;18.37;;
16504;SDS011;8365;51.030;4.696;2024-01-07T08:50:59;26.23;;;18.73;;
16504;SDS011;8365;51.030;4.696;2024-01-07T08:53:30;24.37;;;18.27;;
16504;SDS011;8365;51.030;4.696;2024-01-07T08:56:01;23.70;;;17.90;;
16504;SDS011;8365;51.030;4.696;2024-01-07T08:58:32;25.80;;;19.83;;
16504;SDS011;8365;51.030;4.696;2024-01-07T09:01:03;25.30;;;18.87;;
16504;SDS011;8365;51.030;4.696;2024-01-07T09:03:33;26.83;;;21.30;;
16504;SDS011;8365;51.030;4.696;2024-01-07T09:06:04;25.50;;;19.63;;
16504;SDS011;8365;51.030;4.696;2024-01-07T09:08:34;26.17;;;20.17;;
16504;SDS011;8365;51.030;4.696;2024-01-07T09:11:05;24.87;;;19.90;;
16504;SDS011;8365;51.030;4.696;2024-01-07T09:13:37;30.40;;;19.50;;
16504;SDS011;8365;51.030;4.696;2024-01-07T09:16:07;25.17;;;18.70;;
16504;SDS011;8365;51.030;4.696;2024-01-07T09:18:41;25.77;;;20.93;;
16504;SDS011;8365;51.030;4.696;2024-01-07T09:21:14;28.50;;;20.77;;
16504;SDS011;8365;51.030;4.696;2024-01-07T09:23:45;27.43;;;20.77;;
16504;SDS011;8365;51.030;4.696;2024-01-07T09:26:15;30.23;;;22.47;;
16504;SDS011;8365;51.030;4.696;2024-01-07T09:28:48;32.40;;;23.30;;
16504;SDS011;8365;51.030;4.696;2024-01-07T09:31:19;30.10;;;23.70;;
16504;SDS011;8365;51.030;4.696;2024-01-07T09:33:49;28.17;;;20.97;;
16504;SDS011;8365;51.030;4.696;2024-01-07T09:36:20;30.47;;;22.87;;
16504;SDS011;8365;51.030;4.696;2024-01-07T09:38:50;30.37;;;22.03;;
16504;SDS011;8365;51.030;4.696;2024-01-07T09:41:23;31.87;;;22.03;;
16504;SDS011;8365;51.030;4.696;2024-01-07T09:43:54;30.93;;;23.10;;
16504;SDS011;8365;51.030;4.696;2024-01-07T09:46:24;31.10;;;22.03;;
16504;SDS011;8365;51.030;4.696;2024-01-07T09:48:58;31.30;;;21.50;;
16504;SDS011;8365;51.030;4.696;2024-01-07T09:51:29;30.43;;;22.13;;
16504;SDS011;8365;51.030;4.696;2024-01-07T09:54:08;29.27;;;22.17;;
16504;SDS011;8365;51.030;4.696;2024-01-07T09:56:43;30.20;;;22.27;;
16504;SDS011;8365;51.030;4.696;2024-01-07T09:59:21;30.23;;;22.33;;
16504;SDS011;8365;51.030;4.696;2024-01-07T10:01:52;32.17;;;22.00;;
16504;SDS011;8365;51.030;4.696;2024-01-07T10:04:23;29.30;;;22.07;;
16504;SDS011;8365;51.030;4.696;2024-01-07T10:06:57;29.63;;;21.83;;
16504;SDS011;8365;51.030;4.696;2024-01-07T10:09:29;28.50;;;21.83;;
16504;SDS011;8365;51.030;4.696;2024-01-07T10:12:00;28.50;;;20.80;;
16504;SDS011;8365;51.030;4.696;2024-01-07T10:14:32;27.77;;;21.37;;
16504;SDS011;8365;51.030;4.696;2024-01-07T10:17:03;31.37;;;19.93;;
16504;SDS011;8365;51.030;4.696;2024-01-07T10:19:45;32.03;;;21.67;;
16504;SDS011;8365;51.030;4.696;2024-01-07T10:22:18;25.80;;;18.70;;
16504;SDS011;8365;51.030;4.696;2024-01-07T10:24:51;22.90;;;16.87;;
16504;SDS011;8365;51.030;4.696;2024-01-07T10:27:22;23.93;;;20.53;;
16504;SDS011;8365;51.030;4.696;2024-01-07T10:29:55;21.17;;;16.60;;
16504;SDS011;8365;51.030;4.696;2024-01-07T10:32:28;21.77;;;16.93;;
16504;SDS011;8365;51.030;4.696;2024-01-07T10:35:03;22.37;;;16.57;;
16504;SDS011;8365;51.030;4.696;2024-01-07T10:37:34;22.03;;;15.50;;
16504;SDS011;8365;51.030;4.696;2024-01-07T10:40:06;22.00;;;17.03;;
16504;SDS011;8365;51.030;4.696;2024-01-07T10:42:37;21.83;;;15.60;;
16504;SDS011;8365;51.030;4.696;2024-01-07T10:45:09;24.03;;;16.23;;
16504;SDS011;8365;51.030;4.696;2024-01-07T10:47:40;23.70;;;16.37;;
16504;SDS011;8365;51.030;4.696;2024-01-07T10:50:12;22.50;;;16.50;;
16504;SDS011;8365;51.030;4.696;2024-01-07T10:52:48;22.90;;;16.63;;
16504;SDS011;8365;51.030;4.696;2024-01-07T10:55:23;25.30;;;18.10;;
16504;SDS011;8365;51.030;4.696;2024-01-07T10:57:56;24.73;;;16.93;;
16504;SDS011;8365;51.030;4.696;2024-01-07T11:00:29;23.37;;;16.80;;
16504;SDS011;8365;51.030;4.696;2024-01-07T11:06:07;22.07;;;15.50;;
16504;SDS011;8365;51.030;4.696;2024-01-07T11:11:38;21.67;;;16.33;;
16504;SDS011;8365;51.030;4.696;2024-01-07T11:14:34;19.90;;;15.77;;
16504;SDS011;8365;51.030;4.696;2024-01-07T11:17:09;22.57;;;15.43;;
16504;SDS011;8365;51.030;4.696;2024-01-07T11:19:49;22.73;;;16.83;;
16504;SDS011;8365;51.030;4.696;2024-01-07T11:24:58;24.07;;;16.30;;
16504;SDS011;8365;51.030;4.696;2024-01-07T11:27:29;25.17;;;16.83;;
16504;SDS011;8365;51.030;4.696;2024-01-07T11:32:55;19.10;;;15.33;;
16504;SDS011;8365;51.030;4.696;2024-01-07T11:38:23;20.83;;;16.50;;
16504;SDS011;8365;51.030;4.696;2024-01-07T11:40:53;21.63;;;16.93;;
16504;SDS011;8365;51.030;4.696;2024-01-07T11:43:26;21.77;;;15.73;;
16504;SDS011;8365;51.030;4.696;2024-01-07T11:45:56;19.50;;;15.50;;
16504;SDS011;8365;51.030;4.696;2024-01-07T11:48:27;21.93;;;15.40;;
16504;SDS011;8365;51.030;4.696;2024-01-07T11:50:58;21.10;;;16.20;;
16504;SDS011;8365;51.030;4.696;2024-01-07T11:53:28;28.17;;;16.07;;
16504;SDS011;8365;51.030;4.696;2024-01-07T11:55:59;18.90;;;15.30;;
16504;SDS011;8365;51.030;4.696;2024-01-07T11:58:30;20.10;;;15.23;;
16504;SDS011;8365;51.030;4.696;2024-01-07T12:01:01;20.47;;;16.93;;
16504;SDS011;8365;51.030;4.696;2024-01-07T12:03:31;21.77;;;15.43;;
16504;SDS011;8365;51.030;4.696;2024-01-07T12:06:02;24.83;;;16.23;;
16504;SDS011;8365;51.030;4.696;2024-01-07T12:08:33;19.63;;;14.77;;
16504;SDS011;8365;51.030;4.696;2024-01-07T12:11:04;20.47;;;14.33;;
16504;SDS011;8365;51.030;4.696;2024-01-07T12:13:35;19.60;;;14.70;;
16504;SDS011;8365;51.030;4.696;2024-01-07T12:16:07;18.63;;;14.10;;
16504;SDS011;8365;51.030;4.696;2024-01-07T12:18:38;20.40;;;14.00;;
16504;SDS011;8365;51.030;4.696;2024-01-07T12:21:13;18.87;;;14.87;;
16504;SDS011;8365;51.030;4.696;2024-01-07T12:23:49;21.63;;;17.03;;
16504;SDS011;8365;51.030;4.696;2024-01-07T12:26:20;21.77;;;17.37;;
16504;SDS011;8365;51.030;4.696;2024-01-07T12:28:56;22.93;;;15.57;;
16504;SDS011;8365;51.030;4.696;2024-01-07T12:31:30;17.87;;;14.80;;
16504;SDS011;8365;51.030;4.696;2024-01-07T12:34:04;21.33;;;15.43;;
16504;SDS011;8365;51.030;4.696;2024-01-07T12:36:35;19.80;;;16.13;;
16504;SDS011;8365;51.030;4.696;2024-01-07T12:39:06;21.40;;;15.40;;
16504;SDS011;8365;51.030;4.696;2024-01-07T12:41:36;19.33;;;14.63;;
16504;SDS011;8365;51.030;4.696;2024-01-07T12:44:07;19.83;;;14.73;;
16504;SDS011;8365;51.030;4.696;2024-01-07T12:46:38;17.60;;;14.43;;
16504;SDS011;8365;51.030;4.696;2024-01-07T12:49:09;17.40;;;14.50;;
16504;SDS011;8365;51.030;4.696;2024-01-07T12:51:39;17.93;;;14.40;;
16504;SDS011;8365;51.030;4.696;2024-01-07T12:54:10;19.93;;;15.80;;
16504;SDS011;8365;51.030;4.696;2024-01-07T12:56:40;20.93;;;16.13;;
16504;SDS011;8365;51.030;4.696;2024-01-07T12:59:11;18.80;;;15.50;;
16504;SDS011;8365;51.030;4.696;2024-01-07T13:01:41;19.53;;;15.03;;
16504;SDS011;8365;51.030;4.696;2024-01-07T13:04:12;17.33;;;14.67;;
16504;SDS011;8365;51.030;4.696;2024-01-07T13:06:42;18.53;;;15.90;;
16504;SDS011;8365;51.030;4.696;2024-01-07T13:09:13;16.73;;;14.47;;
16504;SDS011;8365;51.030;4.696;2024-01-07T13:11:43;18.00;;;14.73;;
16504;SDS011;8365;51.030;4.696;2024-01-07T13:14:16;17.73;;;13.70;;
16504;SDS011;8365;51.030;4.696;2024-01-07T13:16:47;15.87;;;13.97;;
16504;SDS011;8365;51.030;4.696;2024-01-07T13:19:18;15.97;;;13.67;;
16504;SDS011;8365;51.030;4.696;2024-01-07T13:21:48;16.20;;;13.17;;
16504;SDS011;8365;51.030;4.696;2024-01-07T13:24:19;19.77;;;14.77;;
16504;SDS011;8365;51.030;4.696;2024-01-07T13:26:49;14.27;;;12.40;;
16504;SDS011;8365;51.030;4.696;2024-01-07T13:29:20;20.07;;;15.10;;
16504;SDS011;8365;51.030;4.696;2024-01-07T13:31:50;18.03;;;14.80;;
16504;SDS011;8365;51.030;4.696;2024-01-07T13:34:21;18.80;;;15.50;;
16504;SDS011;8365;51.030;4.696;2024-01-07T13:36:51;21.67;;;19.47;;
16504;SDS011;8365;51.030;4.696;2024-01-07T13:39:22;16.93;;;13.30;;
16504;SDS011;8365;51.030;4.696;2024-01-07T13:41:52;16.40;;;14.27;;
16504;SDS011;8365;51.030;4.696;2024-01-07T13:44:24;19.60;;;14.53;;
16504;SDS011;8365;51.030;4.696;2024-01-07T13:46:54;16.03;;;14.07;;
16504;SDS011;8365;51.030;4.696;2024-01-07T13:49:25;17.67;;;14.83;;
16504;SDS011;8365;51.030;4.696;2024-01-07T13:51:55;16.50;;;14.53;;
16504;SDS011;8365;51.030;4.696;2024-01-07T13:54:25;19.17;;;14.73;;
16504;SDS011;8365;51.030;4.696;2024-01-07T13:56:56;16.97;;;14.27;;
16504;SDS011;8365;51.030;4.696;2024-01-07T13:59:26;17.37;;;14.43;;
16504;SDS011;8365;51.030;4.696;2024-01-07T14:01:58;18.60;;;14.60;;
16504;SDS011;8365;51.030;4.696;2024-01-07T14:04:29;21.30;;;14.63;;
16504;SDS011;8365;51.030;4.696;2024-01-07T14:06:59;18.17;;;14.70;;
16504;SDS011;8365;51.030;4.696;2024-01-07T14:09:30;18.77;;;14.70;;
16504;SDS011;8365;51.030;4.696;2024-01-07T14:12:01;19.33;;;14.77;;
16504;SDS011;8365;51.030;4.696;2024-01-07T14:14:33;21.97;;;14.63;;
16504;SDS011;8365;51.030;4.696;2024-01-07T14:17:03;19.50;;;15.23;;
16504;SDS011;8365;51.030;4.696;2024-01-07T14:19:34;19.90;;;15.40;;
16504;SDS011;8365;51.030;4.696;2024-01-07T14:22:04;17.77;;;14.13;;
16504;SDS011;8365;51.030;4.696;2024-01-07T14:24:35;18.73;;;14.67;;
16504;SDS011;8365;51.030;4.696;2024-01-07T14:27:05;21.50;;;18.37;;
16504;SDS011;8365;51.030;4.696;2024-01-07T14:29:36;19.33;;;14.53;;
16504;SDS011;8365;51.030;4.696;2024-01-07T14:32:07;15.33;;;13.57;;
16504;SDS011;8365;51.030;4.696;2024-01-07T14:34:38;18.73;;;14.47;;
16504;SDS011;8365;51.030;4.696;2024-01-07T14:37:13;16.53;;;13.50;;
16504;SDS011;8365;51.030;4.696;2024-01-07T14:39:44;15.77;;;13.00;;
16504;SDS011;8365;51.030;4.696;2024-01-07T14:42:15;16.47;;;13.33;;
16504;SDS011;8365;51.030;4.696;2024-01-07T14:44:45;21.20;;;14.53;;
16504;SDS011;8365;51.030;4.696;2024-01-07T14:47:16;16.37;;;13.87;;
16504;SDS011;8365;51.030;4.696;2024-01-07T14:49:47;17.33;;;14.00;;
16504;SDS011;8365;51.030;4.696;2024-01-07T14:52:19;16.27;;;13.73;;
16504;SDS011;8365;51.030;4.696;2024-01-07T14:54:49;17.13;;;13.60;;
16504;SDS011;8365;51.030;4.696;2024-01-07T14:57:19;17.73;;;13.27;;
16504;SDS011;8365;51.030;4.696;2024-01-07T14:59:50;17.47;;;13.67;;
16504;SDS011;8365;51.030;4.696;2024-01-07T15:02:25;20.50;;;14.63;;
16504;SDS011;8365;51.030;4.696;2024-01-07T15:04:56;17.30;;;14.10;;
16504;SDS011;8365;51.030;4.696;2024-01-07T15:07:27;16.33;;;13.57;;
16504;SDS011;8365;51.030;4.696;2024-01-07T15:09:57;15.73;;;13.70;;
16504;SDS011;8365;51.030;4.696;2024-01-07T15:12:32;16.73;;;13.63;;